createdAt,value
2023-04-28T00:00:11.839Z,100745.09
2023-04-28T00:02:40.528Z,100736.28
2023-04-28T00:05:09.450Z,100732.41
2023-04-28T00:07:38.015Z,100730.66
2023-04-28T00:10:07.124Z,100729.56
2023-04-28T00:12:35.527Z,100720.97
2023-04-28T00:15:04.293Z,100724.03
2023-04-28T00:17:32.588Z,100714.66
2023-04-28T00:20:00.864Z,100713.00
2023-04-28T00:22:29.912Z,100706.66
2023-04-28T00:24:58.104Z,100706.34
2023-04-28T00:27:26.299Z,100707.47
2023-04-28T00:29:54.884Z,100697.53
2023-04-28T00:32:23.910Z,100692.56
2023-04-28T00:34:54.103Z,100689.78
2023-04-28T00:37:22.462Z,100684.28
2023-04-28T00:39:58.227Z,100685.97
2023-04-28T00:42:26.943Z,100682.63
2023-04-28T00:44:55.416Z,100669.63
2023-04-28T00:47:23.755Z,100678.44
2023-04-28T00:49:53.947Z,100667.16
2023-04-28T00:52:22.243Z,100663.06
2023-04-28T00:54:50.698Z,100661.63
2023-04-28T00:57:19.324Z,100663.28
2023-04-28T00:59:47.539Z,100654.00
2023-04-28T01:02:19.500Z,100656.75
2023-04-28T01:04:48.114Z,100645.72
2023-04-28T01:07:17.480Z,100648.22
2023-04-28T01:09:47.809Z,100650.19
2023-04-28T01:12:19.130Z,100643.53
2023-04-28T01:14:51.159Z,100647.94
2023-04-28T01:17:20.117Z,100639.66
2023-04-28T01:19:48.698Z,100629.94
2023-04-28T01:22:17.043Z,100635.47
2023-04-28T01:24:45.917Z,100624.13
2023-04-28T01:27:16.820Z,100627.50
2023-04-28T01:29:46.018Z,100622.47
2023-04-28T01:32:14.493Z,100619.72
2023-04-28T01:34:42.534Z,100627.50
2023-04-28T01:37:11.048Z,100625.25
2023-04-28T01:39:39.316Z,100625.25
2023-04-28T01:42:07.735Z,100612.88
2023-04-28T01:44:36.150Z,100614.19
2023-04-28T01:47:04.560Z,100611.94
2023-04-28T01:49:32.830Z,100608.38
2023-04-28T01:52:01.060Z,100593.75
2023-04-28T01:54:29.325Z,100588.25
2023-04-28T01:56:57.763Z,100583.53
2023-04-28T01:59:27.423Z,100590.50
2023-04-28T02:01:55.906Z,100589.03
2023-04-28T02:04:24.577Z,100589.84
2023-04-28T02:06:52.947Z,100589.56
2023-04-28T02:09:21.523Z,100582.13
2023-04-28T02:11:49.887Z,100574.13
2023-04-28T02:14:18.319Z,100575.53
2023-04-28T02:16:46.805Z,100568.91
2023-04-28T02:19:15.734Z,100570.22
2023-04-28T02:21:44.349Z,100568.00
2023-04-28T02:24:13.008Z,100567.16
2023-04-28T02:26:41.809Z,100567.16
2023-04-28T02:29:10.045Z,100560.03
2023-04-28T02:31:38.459Z,100559.19
2023-04-28T02:34:06.800Z,100552.25
2023-04-28T02:36:35.025Z,100550.59
2023-04-28T02:39:03.275Z,100545.38
2023-04-28T02:41:32.105Z,100542.63
2023-04-28T02:44:00.671Z,100537.94
2023-04-28T02:46:28.939Z,100534.03
2023-04-28T02:48:57.225Z,100533.72
2023-04-28T02:51:25.493Z,100531.78
2023-04-28T02:53:53.840Z,100533.44
2023-04-28T02:56:22.088Z,100533.44
2023-04-28T02:58:50.649Z,100527.91
2023-04-28T03:01:19.221Z,100530.16
2023-04-28T03:03:47.701Z,100528.22
2023-04-28T03:06:16.047Z,100529.03
2023-04-28T03:08:44.909Z,100521.38
2023-04-28T03:11:13.011Z,100519.13
2023-04-28T03:13:41.506Z,100508.06
2023-04-28T03:16:09.836Z,100516.34
2023-04-28T03:18:38.185Z,100502.84
2023-04-28T03:21:06.612Z,100503.97
2023-04-28T03:23:35.191Z,100504.81
2023-04-28T03:26:04.102Z,100496.00
2023-04-28T03:28:32.759Z,100499.91
2023-04-28T03:31:02.827Z,100503.16
2023-04-28T03:33:31.709Z,100496.00
2023-04-28T03:36:01.554Z,100492.72
2023-04-28T03:38:29.937Z,100490.66
2023-04-28T03:40:58.248Z,100482.50
2023-04-28T03:43:46.881Z,100486.19
2023-04-28T03:46:36.136Z,100477.59
2023-04-28T03:49:04.980Z,100469.63
2023-04-28T03:51:34.449Z,100464.91
2023-04-28T03:54:03.585Z,100460.19
2023-04-28T03:56:32.337Z,100455.53
2023-04-28T03:59:02.726Z,100455.53
2023-04-28T04:01:30.979Z,100458.78
2023-04-28T04:03:59.621Z,100457.34
2023-04-28T04:06:28.675Z,100457.34
2023-04-28T04:08:56.964Z,100455.53
2023-04-28T04:11:25.241Z,100447.13
2023-04-28T04:13:53.461Z,100444.56
2023-04-28T04:16:26.120Z,100440.16
2023-04-28T04:18:57.515Z,100438.44
2023-04-28T04:21:32.229Z,100449.19
2023-04-28T04:24:01.392Z,100447.22
2023-04-28T04:26:29.813Z,100439.94
2023-04-28T04:28:58.068Z,100436.06
2023-04-28T04:31:25.994Z,100444.25
2023-04-28T04:33:54.107Z,100429.22
2023-04-28T04:36:23.560Z,100426.88
2023-04-28T04:38:54.387Z,100431.25
2023-04-28T04:41:26.220Z,100421.22
2023-04-28T04:44:13.167Z,100422.75
2023-04-28T04:46:47.317Z,100415.97
2023-04-28T04:49:19.808Z,100418.00
2023-04-28T04:51:48.132Z,100419.53
2023-04-28T04:54:16.546Z,100414.69
2023-04-28T04:56:45.634Z,100415.56
2023-04-28T04:59:17.358Z,100424.44
2023-04-28T05:02:05.690Z,100418.28
2023-04-28T05:04:34.355Z,100417.00
2023-04-28T05:07:03.355Z,100419.03
2023-04-28T05:09:33.842Z,100413.03
2023-04-28T05:12:02.483Z,100418.13
2023-04-28T05:14:31.395Z,100418.00
2023-04-28T05:16:59.685Z,100415.59
2023-04-28T05:19:34.058Z,100417.09
2023-04-28T05:22:03.268Z,100417.44
2023-04-28T05:24:32.998Z,100414.41
2023-04-28T05:27:01.640Z,100410.53
2023-04-28T05:29:30.005Z,100413.88
2023-04-28T05:31:58.486Z,100414.69
2023-04-28T05:34:26.937Z,100409.69
2023-04-28T05:36:55.449Z,100410.69
2023-04-28T05:39:27.377Z,100411.66
2023-04-28T05:41:58.682Z,100400.28
2023-04-28T05:44:27.284Z,100394.09
2023-04-28T05:46:55.771Z,100390.84
2023-04-28T05:49:27.402Z,100387.78
2023-04-28T05:51:55.618Z,100377.19
2023-04-28T05:54:23.763Z,100384.69
2023-04-28T05:56:55.155Z,100385.00
2023-04-28T05:59:23.410Z,100388.59
2023-04-28T06:01:52.066Z,100388.28
2023-04-28T06:04:21.748Z,100390.88
2023-04-28T06:06:51.478Z,100387.94
2023-04-28T06:09:20.289Z,100387.09
2023-04-28T06:11:48.857Z,100389.41
2023-04-28T06:14:17.687Z,100383.38
2023-04-28T06:16:46.167Z,100385.50
2023-04-28T06:19:15.424Z,100373.53
2023-04-28T06:21:43.714Z,100374.16
2023-04-28T06:24:12.107Z,100385.84
2023-04-28T06:26:42.446Z,100378.31
2023-04-28T06:29:11.349Z,100377.94
2023-04-28T06:31:39.701Z,100366.84
2023-04-28T06:34:08.374Z,100380.06
2023-04-28T06:36:37.579Z,100373.66
2023-04-28T06:39:06.174Z,100376.91
2023-04-28T06:41:35.799Z,100379.47
2023-04-28T06:44:05.606Z,100384.66
2023-04-28T06:46:37.491Z,100377.63
2023-04-28T06:49:06.103Z,100370.56
2023-04-28T06:51:34.481Z,100378.72
2023-04-28T06:54:03.056Z,100368.72
2023-04-28T06:56:31.495Z,100363.78
2023-04-28T06:58:59.966Z,100360.34
2023-04-28T07:01:28.405Z,100363.72
2023-04-28T07:03:56.947Z,100366.16
2023-04-28T07:06:27.469Z,100368.19
2023-04-28T07:08:55.928Z,100364.47
2023-04-28T07:11:24.145Z,100359.66
2023-04-28T07:13:52.398Z,100346.09
2023-04-28T07:16:22.004Z,100344.88
2023-04-28T07:18:50.734Z,100351.53
2023-04-28T07:21:19.000Z,100344.78
2023-04-28T07:23:47.324Z,100343.31
2023-04-28T07:26:16.418Z,100345.25
2023-04-28T07:28:45.274Z,100337.31
2023-04-28T07:31:13.580Z,100340.34
2023-04-28T07:33:42.145Z,100331.88
2023-04-28T07:36:12.653Z,100335.16
2023-04-28T07:38:40.866Z,100328.91
2023-04-28T07:41:11.194Z,100325.88
2023-04-28T07:43:40.903Z,100323.91
2023-04-28T07:46:08.908Z,100319.50
2023-04-28T07:48:37.250Z,100309.19
2023-04-28T07:51:05.520Z,100307.66
2023-04-28T07:53:34.137Z,100306.69
2023-04-28T07:56:02.466Z,100299.94
2023-04-28T07:58:31.297Z,100310.72
2023-04-28T08:00:59.662Z,100291.91
2023-04-28T08:03:28.036Z,100298.53
2023-04-28T08:05:56.636Z,100300.75
2023-04-28T08:08:24.926Z,100309.97
2023-04-28T08:10:54.323Z,100311.81
2023-04-28T08:13:22.231Z,100308.56
2023-04-28T08:15:50.200Z,100308.22
2023-04-28T08:18:19.175Z,100309.97
2023-04-28T08:20:47.346Z,100314.59
2023-04-28T08:23:16.631Z,100311.94
2023-04-28T08:25:44.969Z,100321.09
2023-04-28T08:28:13.670Z,100319.09
2023-04-28T08:30:41.668Z,100318.88
2023-04-28T08:33:09.672Z,100326.09
2023-04-28T08:35:38.252Z,100328.97
2023-04-28T08:38:07.629Z,100334.78
2023-04-28T08:40:35.733Z,100329.13
2023-04-28T08:43:04.186Z,100333.84
2023-04-28T08:45:45.949Z,100334.44
2023-04-28T08:48:22.454Z,100336.16
2023-04-28T08:50:54.582Z,100336.38
2023-04-28T08:53:26.177Z,100339.84
2023-04-28T08:55:57.986Z,100337.94
2023-04-28T08:58:27.551Z,100336.63
2023-04-28T09:00:55.988Z,100341.69
2023-04-28T09:03:24.864Z,100334.09
2023-04-28T09:05:52.962Z,100335.53
2023-04-28T09:08:20.959Z,100331.94
2023-04-28T09:10:49.281Z,100329.16
2023-04-28T09:13:27.043Z,100322.75
2023-04-28T09:16:01.648Z,100319.69
2023-04-28T09:18:34.133Z,100314.66
2023-04-28T09:21:12.969Z,100311.41
2023-04-28T09:23:51.977Z,100310.50
2023-04-28T09:26:19.947Z,100307.69
2023-04-28T09:28:48.178Z,100302.13
2023-04-28T09:31:28.518Z,100301.50
2023-04-28T09:34:00.630Z,100304.66
2023-04-28T09:36:30.738Z,100297.28
2023-04-28T09:39:00.280Z,100298.59
2023-04-28T09:41:45.635Z,100301.75
2023-04-28T09:44:21.736Z,100299.41
2023-04-28T09:46:49.690Z,100295.00
2023-04-28T09:49:17.681Z,100303.78
2023-04-28T09:51:46.078Z,100299.84
2023-04-28T09:54:15.131Z,100293.66
2023-04-28T09:56:47.406Z,100295.72
2023-04-28T09:59:15.410Z,100286.78
2023-04-28T10:01:44.821Z,100279.06
2023-04-28T10:04:13.629Z,100287.88
2023-04-28T10:06:42.902Z,100284.38
2023-04-28T10:09:12.231Z,100281.88
2023-04-28T10:11:40.594Z,100280.34
2023-04-28T10:14:08.724Z,100280.25
2023-04-28T10:16:37.951Z,100273.72
2023-04-28T10:19:06.160Z,100267.63
2023-04-28T10:21:45.304Z,100265.63
2023-04-28T10:24:30.914Z,100268.28
2023-04-28T10:27:09.881Z,100267.25
2023-04-28T10:29:38.124Z,100263.91
2023-04-28T10:32:26.335Z,100253.41
2023-04-28T10:35:32.465Z,100245.56
2023-04-28T10:38:10.895Z,100251.88
2023-04-28T10:40:48.875Z,100244.56
2023-04-28T10:43:26.473Z,100239.31
2023-04-28T10:45:59.446Z,100230.31
2023-04-28T10:48:30.784Z,100211.34
2023-04-28T10:51:05.394Z,100216.19
2023-04-28T10:53:45.827Z,100214.94
2023-04-28T10:56:19.106Z,100208.50
2023-04-28T10:58:57.970Z,100198.41
2023-04-28T11:01:32.441Z,100206.09
2023-04-28T11:04:13.526Z,100193.00
2023-04-28T11:06:43.975Z,100194.88
2023-04-28T11:09:14.925Z,100182.94
2023-04-28T11:11:57.490Z,100182.78
2023-04-28T11:14:25.792Z,100187.00
2023-04-28T11:17:13.252Z,100177.25
2023-04-28T11:19:45.303Z,100179.75
2023-04-28T11:22:21.836Z,100178.34
2023-04-28T11:25:02.443Z,100161.81
2023-04-28T11:27:34.548Z,100172.22
2023-04-28T11:30:02.606Z,100159.75
2023-04-28T11:32:35.944Z,100156.09
2023-04-28T11:35:04.830Z,100161.09
2023-04-28T11:37:32.912Z,100147.53
2023-04-28T11:40:13.022Z,100150.41
2023-04-28T11:42:50.102Z,100145.72
2023-04-28T11:45:18.351Z,100145.28
2023-04-28T11:47:49.577Z,100144.47
2023-04-28T11:50:17.567Z,100153.47
2023-04-28T11:52:52.485Z,100137.91
2023-04-28T11:55:21.708Z,100143.91
2023-04-28T11:58:00.468Z,100144.38
2023-04-28T12:00:29.830Z,100138.47
2023-04-28T12:02:58.442Z,100135.34
2023-04-28T12:05:26.409Z,100132.28
2023-04-28T12:07:54.415Z,100143.09
2023-04-28T12:10:23.598Z,100140.31
2023-04-28T12:12:53.430Z,100143.34
2023-04-28T12:15:24.705Z,100143.13
2023-04-28T12:17:53.334Z,100140.19
2023-04-28T12:20:38.871Z,100145.56
2023-04-28T12:23:07.791Z,100141.94
2023-04-28T12:25:45.705Z,100146.78
2023-04-28T12:28:13.925Z,100140.53
2023-04-28T12:30:43.702Z,100138.63
2023-04-28T12:33:29.586Z,100142.47
2023-04-28T12:35:58.425Z,100131.31
2023-04-28T12:38:28.194Z,100150.47
2023-04-28T12:40:57.184Z,100134.69
2023-04-28T12:43:28.773Z,100136.59
2023-04-28T12:45:56.965Z,100131.03
2023-04-28T12:48:25.341Z,100138.44
2023-04-28T12:50:53.519Z,100131.78
2023-04-28T12:53:21.481Z,100133.56
2023-04-28T12:55:49.807Z,100139.75
2023-04-28T12:58:18.346Z,100138.69
2023-04-28T13:00:46.302Z,100127.03
2023-04-28T13:03:15.811Z,100130.97
2023-04-28T13:05:44.219Z,100126.53
2023-04-28T13:08:13.912Z,100126.13
2023-04-28T13:10:42.741Z,100118.94
2023-04-28T13:13:10.516Z,100123.28
2023-04-28T13:15:39.288Z,100123.44
2023-04-28T13:18:07.350Z,100120.66
2023-04-28T13:20:35.936Z,100125.53
2023-04-28T13:23:03.817Z,100125.59
2023-04-28T13:25:31.847Z,100116.38
2023-04-28T13:27:59.800Z,100121.13
2023-04-28T13:30:28.140Z,100104.28
2023-04-28T13:32:57.552Z,100107.47
2023-04-28T13:35:26.156Z,100113.09
2023-04-28T13:38:01.573Z,100103.47
2023-04-28T13:40:29.827Z,100110.72
2023-04-28T13:42:57.780Z,100109.09
2023-04-28T13:45:26.871Z,100092.22
2023-04-28T13:47:55.784Z,100093.03
2023-04-28T13:50:23.968Z,100101.88
2023-04-28T13:52:52.686Z,100099.44
2023-04-28T13:55:27.459Z,100099.75
2023-04-28T13:57:56.456Z,100092.50
2023-04-28T14:00:26.085Z,100088.41
2023-04-28T14:02:54.187Z,100086.19
2023-04-28T14:05:22.684Z,100086.53
2023-04-28T14:07:50.760Z,100090.94
2023-04-28T14:10:19.121Z,100093.28
2023-04-28T14:12:47.460Z,100093.75
2023-04-28T14:15:16.174Z,100097.38
2023-04-28T14:17:44.657Z,100085.72
2023-04-28T14:20:13.231Z,100092.38
2023-04-28T14:22:41.826Z,100085.13
2023-04-28T14:25:10.188Z,100087.09
2023-04-28T14:27:38.570Z,100084.31
2023-04-28T14:30:08.705Z,100088.03
2023-04-28T14:32:39.912Z,100082.09
2023-04-28T14:35:09.593Z,100089.25
2023-04-28T14:37:37.720Z,100088.03
2023-04-28T14:40:07.270Z,100085.97
2023-04-28T14:42:37.429Z,100084.59
2023-04-28T14:45:09.034Z,100074.78
2023-04-28T14:47:39.116Z,100082.47
2023-04-28T14:50:08.674Z,100081.25
2023-04-28T14:52:37.263Z,100079.66
2023-04-28T14:55:07.249Z,100076.38
2023-04-28T14:57:35.364Z,100075.78
2023-04-28T15:00:07.945Z,100084.59
2023-04-28T15:02:36.583Z,100078.44
2023-04-28T15:05:05.942Z,100076.41
2023-04-28T15:07:35.390Z,100082.03
2023-04-28T15:10:03.716Z,100081.16
2023-04-28T15:12:32.065Z,100079.63
2023-04-28T15:15:00.734Z,100081.19
2023-04-28T15:17:28.590Z,100070.72
2023-04-28T15:19:57.348Z,100076.72
2023-04-28T15:22:25.810Z,100069.41
2023-04-28T15:24:55.306Z,100065.41
2023-04-28T15:27:23.810Z,100053.91
2023-04-28T15:29:51.949Z,100057.00
2023-04-28T15:32:20.243Z,100056.19
2023-04-28T15:34:48.910Z,100065.09
2023-04-28T15:37:44.559Z,100065.50
2023-04-28T15:40:16.141Z,100064.81
2023-04-28T15:42:51.975Z,100070.22
2023-04-28T15:45:22.082Z,100067.59
2023-04-28T15:47:50.920Z,100062.75
2023-04-28T15:50:20.392Z,100058.63
2023-04-28T15:52:50.145Z,100053.59
2023-04-28T15:55:21.700Z,100060.16
2023-04-28T15:57:49.822Z,100058.34
2023-04-28T16:00:18.075Z,100059.72
2023-04-28T16:02:46.559Z,100062.50
2023-04-28T16:05:14.772Z,100050.00
2023-04-28T16:07:42.941Z,100059.09
2023-04-28T16:10:16.621Z,100051.75
2023-04-28T16:12:45.324Z,100055.00
2023-04-28T16:15:14.972Z,100046.97
2023-04-28T16:17:44.252Z,100047.16
2023-04-28T16:20:19.170Z,100047.88
2023-04-28T16:22:47.788Z,100053.28
2023-04-28T16:25:19.339Z,100059.50
2023-04-28T16:27:49.814Z,100055.94
2023-04-28T16:30:23.872Z,100064.63
2023-04-28T16:32:53.108Z,100057.34
2023-04-28T16:35:21.772Z,100047.13
2023-04-28T16:37:49.764Z,100046.47
2023-04-28T16:40:17.811Z,100045.50
2023-04-28T16:42:46.691Z,100048.47
2023-04-28T16:45:15.401Z,100048.41
2023-04-28T16:47:43.771Z,100043.47
2023-04-28T16:50:14.802Z,100037.75
2023-04-28T16:52:42.789Z,100045.94
2023-04-28T16:55:11.257Z,100051.13
2023-04-28T16:57:39.120Z,100048.41
2023-04-28T17:00:09.423Z,100055.06
2023-04-28T17:02:37.621Z,100058.59
2023-04-28T17:05:06.086Z,100064.91
2023-04-28T17:07:34.119Z,100064.97
2023-04-28T17:10:03.180Z,100065.47
2023-04-28T17:12:31.291Z,100059.06
2023-04-28T17:14:59.247Z,100063.88
2023-04-28T17:17:29.036Z,100059.44
2023-04-28T17:19:59.760Z,100062.19
2023-04-28T17:22:30.082Z,100069.81
2023-04-28T17:24:58.352Z,100054.00
2023-04-28T17:27:26.410Z,100069.28
2023-04-28T17:29:54.554Z,100076.41
2023-04-28T17:32:23.647Z,100079.81
2023-04-28T17:34:51.643Z,100080.47
2023-04-28T17:37:19.656Z,100087.13
2023-04-28T17:39:50.814Z,100081.72
2023-04-28T17:42:19.344Z,100083.88
2023-04-28T17:44:47.272Z,100089.34
2023-04-28T17:47:17.202Z,100092.38
2023-04-28T17:49:45.895Z,100085.81
2023-04-28T17:52:15.378Z,100090.03
2023-04-28T17:54:43.387Z,100084.38
2023-04-28T17:57:12.860Z,100095.69
2023-04-28T17:59:42.504Z,100097.06
2023-04-28T18:02:12.031Z,100092.19
2023-04-28T18:04:40.416Z,100102.81
2023-04-28T18:07:08.439Z,100101.13
2023-04-28T18:09:37.180Z,100098.66
2023-04-28T18:12:05.575Z,100101.91
2023-04-28T18:14:35.331Z,100104.50
2023-04-28T18:17:03.245Z,100098.03
2023-04-28T18:19:31.311Z,100108.31
2023-04-28T18:22:00.299Z,100101.38
2023-04-28T18:24:28.745Z,100107.06
2023-04-28T18:26:56.847Z,100110.44
2023-04-28T18:29:25.324Z,100106.88
2023-04-28T18:31:54.271Z,100098.06
2023-04-28T18:34:22.283Z,100103.25
2023-04-28T18:36:50.456Z,100103.72
2023-04-28T18:39:19.154Z,100108.41
2023-04-28T18:41:46.998Z,100107.22
2023-04-28T18:44:15.903Z,100114.97
2023-04-28T18:46:43.757Z,100116.38
2023-04-28T18:49:12.724Z,100111.41
2023-04-28T18:51:41.078Z,100112.94
2023-04-28T18:54:08.946Z,100115.59
2023-04-28T18:56:37.328Z,100115.97
2023-04-28T18:59:05.815Z,100113.88
2023-04-28T19:01:34.000Z,100115.78
2023-04-28T19:04:03.105Z,100119.50
2023-04-28T19:06:31.299Z,100121.28
2023-04-28T19:08:59.685Z,100127.13
2023-04-28T19:11:27.495Z,100130.84
2023-04-28T19:13:55.790Z,100126.75
2023-04-28T19:16:23.681Z,100129.47
2023-04-28T19:18:51.753Z,100129.28
2023-04-28T19:21:19.963Z,100133.81
2023-04-28T19:23:48.562Z,100136.94
2023-04-28T19:26:16.575Z,100148.09
2023-04-28T19:28:46.642Z,100143.84
2023-04-28T19:31:15.437Z,100155.47
2023-04-28T19:33:43.282Z,100155.66
2023-04-28T19:36:11.262Z,100159.06
2023-04-28T19:38:40.194Z,100159.25
2023-04-28T19:41:08.273Z,100159.47
2023-04-28T19:43:36.699Z,100153.03
2023-04-28T19:46:04.906Z,100162.25
2023-04-28T19:48:33.201Z,100163.41
2023-04-28T19:51:01.309Z,100164.81
2023-04-28T19:53:29.477Z,100167.88
2023-04-28T19:56:02.022Z,100174.00
2023-04-28T19:58:32.472Z,100173.06
2023-04-28T20:01:00.749Z,100165.84
2023-04-28T20:03:29.909Z,100171.44
2023-04-28T20:05:58.082Z,100178.91
2023-04-28T20:08:27.497Z,100180.88
2023-04-28T20:10:55.581Z,100172.34
2023-04-28T20:13:24.064Z,100177.44
2023-04-28T20:15:53.066Z,100178.72
2023-04-28T20:18:21.112Z,100179.25
2023-04-28T20:20:53.069Z,100177.31
2023-04-28T20:23:21.049Z,100182.31
2023-04-28T20:25:49.200Z,100175.88
2023-04-28T20:28:17.457Z,100177.34
2023-04-28T20:30:45.924Z,100184.81
2023-04-28T20:33:14.384Z,100186.63
2023-04-28T20:35:42.921Z,100184.19
2023-04-28T20:38:11.263Z,100191.16
2023-04-28T20:40:41.353Z,100179.59
2023-04-28T20:43:09.710Z,100187.50
2023-04-28T20:45:37.805Z,100188.13
2023-04-28T20:48:05.885Z,100189.31
2023-04-28T20:50:39.290Z,100187.91
2023-04-28T20:53:07.576Z,100190.41
2023-04-28T20:55:35.637Z,100186.50
2023-04-28T20:58:03.673Z,100184.94
2023-04-28T21:00:33.545Z,100180.69
2023-04-28T21:03:04.750Z,100175.56
2023-04-28T21:05:33.420Z,100184.06
2023-04-28T21:08:01.218Z,100190.19
2023-04-28T21:10:29.414Z,100188.53
2023-04-28T21:12:57.702Z,100187.09
2023-04-28T21:15:26.164Z,100186.50
2023-04-28T21:17:54.374Z,100188.13
2023-04-28T21:20:23.298Z,100193.25
2023-04-28T21:22:51.408Z,100193.56
2023-04-28T21:25:20.251Z,100201.16
2023-04-28T21:27:48.582Z,100210.44
2023-04-28T21:30:16.460Z,100199.03
2023-04-28T21:32:44.400Z,100202.66
2023-04-28T21:35:12.458Z,100204.78
2023-04-28T21:37:40.829Z,100218.56
2023-04-28T21:40:09.978Z,100214.75
2023-04-28T21:42:37.999Z,100220.38
2023-04-28T21:45:09.444Z,100223.16
2023-04-28T21:47:38.060Z,100219.47
2023-04-28T21:50:08.881Z,100218.56
2023-04-28T21:52:38.420Z,100227.13
2023-04-28T21:55:07.175Z,100230.50
2023-04-28T21:57:36.058Z,100224.34
2023-04-28T22:00:06.361Z,100238.72
2023-04-28T22:02:41.635Z,100231.22
2023-04-28T22:05:10.371Z,100229.47
2023-04-28T22:07:38.640Z,100231.31
2023-04-28T22:10:08.172Z,100242.19
2023-04-28T22:12:36.089Z,100237.97
2023-04-28T22:15:05.241Z,100244.00
2023-04-28T22:17:33.227Z,100249.41
2023-04-28T22:20:01.622Z,100249.56
2023-04-28T22:22:31.109Z,100248.44
2023-04-28T22:25:00.201Z,100251.53
2023-04-28T22:27:30.412Z,100257.44
2023-04-28T22:29:58.820Z,100257.44
2023-04-28T22:32:27.495Z,100255.78
2023-04-28T22:34:55.526Z,100264.47
2023-04-28T22:37:23.861Z,100257.59
2023-04-28T22:39:53.179Z,100262.94
2023-04-28T22:42:21.671Z,100260.53
2023-04-28T22:44:49.885Z,100254.56
2023-04-28T22:47:18.182Z,100269.44
2023-04-28T22:49:46.635Z,100264.06
2023-04-28T22:52:14.880Z,100264.47
2023-04-28T22:54:42.899Z,100262.06
2023-04-28T22:57:11.549Z,100266.56
2023-04-28T22:59:39.791Z,100265.72
2023-04-28T23:02:08.894Z,100268.41
2023-04-28T23:04:37.516Z,100264.84
2023-04-28T23:07:07.112Z,100264.47
2023-04-28T23:09:37.103Z,100264.88
2023-04-28T23:12:06.017Z,100267.31
2023-04-28T23:14:34.307Z,100261.13
2023-04-28T23:17:02.519Z,100275.53
2023-04-28T23:19:31.269Z,100265.22
2023-04-28T23:21:59.640Z,100272.97
2023-04-28T23:24:27.888Z,100267.25
2023-04-28T23:26:56.869Z,100265.84
2023-04-28T23:29:25.703Z,100275.19
2023-04-28T23:31:54.931Z,100267.44
2023-04-28T23:34:24.009Z,100272.88
2023-04-28T23:36:52.462Z,100276.66
2023-04-28T23:39:20.807Z,100283.75
2023-04-28T23:41:48.941Z,100282.44
2023-04-28T23:44:17.661Z,100282.78
2023-04-28T23:46:45.856Z,100282.78
2023-04-28T23:49:14.050Z,100274.78
2023-04-28T23:51:42.820Z,100288.53
2023-04-28T23:54:11.498Z,100279.47
2023-04-28T23:56:40.025Z,100294.28
2023-04-28T23:59:08.364Z,100289.13
